Nearby METAR Reports

 

KBVO - Bartlesville, Oklahoma, USA
Distance from station: WNW 10mi, 16km
Updated: Thu, 21-Mar-2019 8:53pm CDT
Clear
Clear
 Wind from calm
Wind: Calm
Temperature: 43°F , 6°C
Dew Point: 30°F , -1°C
Humidity: 61%
Barometer: 30.17 inHg , 1021.7 hPa
Clouds: Clear
Visibility: 10 miles , 16 km
2019/03/22 01:53 KBVO 220153Z AUTO 00000KT 10SM CLR 06/M01 A3017 RMK AO2 SLP216 T00611006
KCFV - Coffeyville, Kansas, USA
Distance from station: NNE 31mi, 49km
Updated: Thu, 21-Mar-2019 8:52pm CDT
Clear
Clear
 Wind from NE
Wind: NE 7 mph , 11 km/h
Temperature: 46°F , 8°C
Wind Chill: 42°F , 6°C
Dew Point: 30°F , -1°C
Humidity: 53%
Barometer: 30.16 inHg , 1021.3 hPa
Clouds: Clear
Visibility: 10 miles , 16 km
2019/03/22 01:52 KCFV 220152Z AUTO 05006KT 10SM CLR 08/M01 A3016 RMK AO2 SLP214 T00831006
 
KIDP - Independence, Kansas, USA
Distance from station: N 32mi, 52km
Updated: Thu, 21-Mar-2019 9:35pm CDT
Clear
Clear
 Wind from calm
Wind: Calm
Temperature: 48°F , 9°C
Dew Point: 32°F , 0°C
Humidity: 54%
Barometer: 30.18 inHg , 1022 hPa
Clouds: Clear
Visibility: 10 miles , 16 km
2019/03/22 02:35 KIDP 220235Z AUTO 00000KT 10SM CLR 09/00 A3018 RMK AO2 T00901004
KGCM - Claremore, Oklahoma, USA
Distance from station: SE 35mi, 56km
Updated: Thu, 21-Mar-2019 9:35pm CDT
Clear
Clear
 Wind from calm
Wind: Calm
Temperature: 48°F , 9°C
Dew Point: 32°F , 0°C
Humidity: 54%
Barometer: 30.18 inHg , 1022 hPa
Clouds: Clear
Visibility: 10 miles , 16 km
2019/03/22 02:35 KGCM 220235Z AUTO 00000KT 10SM CLR 09/00 A3018 RMK AO2 TSNO
 
KTUL - Tulsa, Oklahoma, USA
Distance from station: S 35mi, 56km
Updated: Thu, 21-Mar-2019 8:53pm CDT
Overcast
Overcast
 Wind from ENE
Wind: ENE 3 mph , 6 km/h
Temperature: 59°F , 15°C
Dew Point: 30°F , -1°C
Humidity: 34%
Barometer: 30.16 inHg , 1021.3 hPa
Clouds: Overcast
Visibility: 10 miles , 16 km
Cloud details: Overcast 25000 ft
2019/03/22 01:53 KTUL 220153Z 06003KT 10SM OVC250 15/M01 A3016 RMK AO2 SLP210 T01501011
KRVS - Tulsa, Oklahoma, USA
Distance from station: S 46mi, 74km
Updated: Thu, 21-Mar-2019 8:53pm CDT
Clear
Clear
 Wind from N
Wind: N 3 mph , 6 km/h
Temperature: 50°F , 10°C
Dew Point: 36°F , 2°C
Humidity: 58%
Barometer: 30.15 inHg , 1021 hPa
Clouds: Clear
Visibility: 10 miles , 16 km
2019/03/22 01:53 KRVS 220153Z 01003KT 10SM CLR 10/02 A3015 RMK AO2 SLP214 T01000022
 
KPPF - Parsons, Kansas, USA
Distance from station: NNE 48mi, 76km
Updated: Thu, 21-Mar-2019 8:52pm CDT
Clear
Clear
 Wind from calm
Wind: Calm
Temperature: 46°F , 8°C
Dew Point: 34°F , 1°C
Humidity: 62%
Barometer: 30.17 inHg , 1021.7 hPa
Clouds: Clear
Visibility: 10 miles , 16 km
2019/03/22 01:52 KPPF 220152Z AUTO 00000KT 10SM CLR 08/01 A3017 RMK AO2 SLP219 T00780006
KGMJ - Grove, Oklahoma, USA
Distance from station: E 63mi, 101km
Updated: Thu, 21-Mar-2019 9:35pm CDT
Clear
Clear
 Wind from calm
Wind: Calm
Temperature: 45°F , 7°C
Dew Point: 36°F , 2°C
Humidity: 71%
Barometer: 30.18 inHg , 1022 hPa
Clouds: Clear
Visibility: 10 miles , 16 km
2019/03/22 02:35 KGMJ 220235Z AUTO 00000KT 10SM CLR 07/02 A3018 RMK AO2
 
KPNC - Ponca City, Oklahoma, USA
Distance from station: W 69mi, 111km
Updated: Thu, 21-Mar-2019 8:53pm CDT
Clear
Clear
 Wind from calm
Wind: Calm
Temperature: 48°F , 9°C
Dew Point: 32°F , 0°C
Humidity: 54%
Barometer: 30.16 inHg , 1021.3 hPa
Clouds: Clear
Visibility: 10 miles , 16 km
2019/03/22 01:53 KPNC 220153Z AUTO 00000KT 10SM CLR 09/00 A3016 RMK AO2 SLP214 T00940000
KCNU - Chanute, Kansas, USA
Distance from station: NNE 69mi, 112km
Updated: Thu, 21-Mar-2019 8:52pm CDT
Clear
Clear
 Wind from calm
Wind: Calm
Temperature: 46°F , 8°C
Dew Point: 30°F , -1°C
Humidity: 53%
Barometer: 30.17 inHg , 1021.7 hPa
Clouds: Clear
Visibility: 10 miles , 16 km
2019/03/22 01:52 KCNU 220152Z AUTO 00000KT 10SM CLR 08/M01 A3017 RMK AO2 SLP220 T00781006